createdAt,value
2018-01-15T00:01:16.921Z,9.37
2018-01-15T00:03:45.280Z,8.95
2018-01-15T00:06:13.651Z,8.80
2018-01-15T00:08:41.310Z,10.07
2018-01-15T00:11:09.002Z,8.45
2018-01-15T00:13:37.422Z,11.45
2018-01-15T00:16:05.084Z,8.63
2018-01-15T00:18:32.764Z,9.65
2018-01-15T00:21:00.377Z,9.57
2018-01-15T00:23:28.820Z,10.52
2018-01-15T00:25:56.487Z,9.50
2018-01-15T00:28:24.124Z,8.98
2018-01-15T00:30:51.730Z,11.23
2018-01-15T00:33:19.370Z,10.55
2018-01-15T00:35:47.041Z,9.43
2018-01-15T00:38:14.647Z,9.25
2018-01-15T00:40:42.302Z,9.43
2018-01-15T00:43:09.978Z,13.07
2018-01-15T00:45:37.629Z,9.40
2018-01-15T00:48:05.263Z,11.63
2018-01-15T00:50:32.910Z,8.77
2018-01-15T00:53:01.354Z,11.35
2018-01-15T00:55:28.995Z,8.27
2018-01-15T00:57:56.690Z,11.30
2018-01-15T01:00:24.325Z,10.68
2018-01-15T01:02:52.020Z,10.40
2018-01-15T01:05:19.665Z,10.05
2018-01-15T01:07:47.327Z,11.73
2018-01-15T01:10:15.019Z,10.00
2018-01-15T01:12:42.650Z,10.80
2018-01-15T01:15:10.307Z,10.30
2018-01-15T01:17:38.724Z,10.38
2018-01-15T01:20:06.365Z,9.45
2018-01-15T01:22:33.975Z,10.40
2018-01-15T01:25:01.620Z,11.12
2018-01-15T01:27:29.279Z,9.10
2018-01-15T01:29:56.934Z,9.93
2018-01-15T01:32:24.534Z,8.75
2018-01-15T01:34:52.200Z,10.77
2018-01-15T01:37:20.638Z,11.35
2018-01-15T01:39:49.075Z,10.88
2018-01-15T01:42:16.715Z,15.00
2018-01-15T01:44:45.219Z,9.47
2018-01-15T01:47:12.902Z,11.43
2018-01-15T01:49:40.511Z,13.40
2018-01-15T01:52:08.924Z,10.57
2018-01-15T01:54:36.524Z,10.85
2018-01-15T01:57:04.171Z,10.45
2018-01-15T01:59:31.830Z,10.68
2018-01-15T02:01:59.491Z,10.07
2018-01-15T02:04:27.122Z,10.30
2018-01-15T02:06:55.603Z,10.98
2018-01-15T02:09:23.999Z,10.25
2018-01-15T02:11:51.675Z,9.63
2018-01-15T02:14:19.321Z,11.18
2018-01-15T02:16:47.712Z,9.87
2018-01-15T02:19:16.137Z,12.80
2018-01-15T02:21:43.775Z,11.12
2018-01-15T02:24:11.438Z,11.00
2018-01-15T02:26:39.101Z,11.05
2018-01-15T02:29:06.773Z,11.10
2018-01-15T02:31:34.391Z,11.02
2018-01-15T02:34:02.035Z,13.62
2018-01-15T02:36:29.674Z,12.30
2018-01-15T02:38:57.299Z,10.55
2018-01-15T02:41:24.985Z,11.98
2018-01-15T02:43:53.421Z,10.77
2018-01-15T02:46:21.085Z,12.52
2018-01-15T02:48:48.724Z,13.40
2018-01-15T02:51:16.337Z,11.95
2018-01-15T02:53:43.967Z,14.47
2018-01-15T02:56:11.586Z,11.30
2018-01-15T02:58:39.231Z,13.07
2018-01-15T03:01:06.944Z,11.10
2018-01-15T03:03:35.373Z,14.37
2018-01-15T03:06:02.976Z,11.88
2018-01-15T03:08:31.376Z,11.60
2018-01-15T03:10:59.801Z,10.77
2018-01-15T03:13:27.484Z,10.65
2018-01-15T03:15:55.167Z,11.63
2018-01-15T03:18:22.828Z,11.82
2018-01-15T03:20:50.479Z,12.25
2018-01-15T03:23:18.159Z,12.00
2018-01-15T03:25:46.021Z,11.43
2018-01-15T03:28:13.668Z,13.77
2018-01-15T03:30:41.295Z,12.37
2018-01-15T03:33:08.985Z,13.50
2018-01-15T03:35:36.618Z,10.75
2018-01-15T03:38:05.056Z,11.95
2018-01-15T03:40:32.679Z,11.10
2018-01-15T03:43:01.092Z,10.23
2018-01-15T03:45:28.725Z,13.00
2018-01-15T03:47:57.426Z,14.85
2018-01-15T03:50:25.049Z,10.75
2018-01-15T03:52:52.672Z,11.90
2018-01-15T03:55:20.341Z,11.70
2018-01-15T03:57:47.961Z,11.88
2018-01-15T04:00:15.615Z,12.37
2018-01-15T04:02:43.261Z,12.27
2018-01-15T04:05:10.919Z,10.55
2018-01-15T04:07:38.546Z,12.20
2018-01-15T04:10:06.990Z,10.10
2018-01-15T04:12:34.629Z,12.75
2018-01-15T04:15:02.278Z,13.35
2018-01-15T04:17:30.684Z,12.63
2018-01-15T04:19:58.341Z,14.15
2018-01-15T04:22:26.027Z,13.73
2018-01-15T04:24:53.661Z,13.07
2018-01-15T04:27:22.129Z,11.60
2018-01-15T04:29:49.771Z,13.93
2018-01-15T04:32:17.413Z,13.07
2018-01-15T04:34:45.066Z,12.68
2018-01-15T04:37:12.700Z,12.15
2018-01-15T04:39:40.398Z,13.02
2018-01-15T04:42:08.223Z,12.20
2018-01-15T04:44:35.951Z,11.50
2018-01-15T04:47:03.566Z,13.75
2018-01-15T04:49:32.015Z,13.20
2018-01-15T04:51:59.629Z,12.10
2018-01-15T04:54:28.100Z,11.55
2018-01-15T04:56:55.775Z,11.60
2018-01-15T04:59:23.438Z,13.32
2018-01-15T05:01:51.855Z,12.50
2018-01-15T05:04:19.498Z,15.02
2018-01-15T05:06:47.898Z,12.40
2018-01-15T05:09:15.541Z,10.07
2018-01-15T05:11:43.984Z,12.48
2018-01-15T05:14:11.607Z,15.45
2018-01-15T05:16:40.024Z,12.88
2018-01-15T05:19:07.712Z,12.25
2018-01-15T05:21:35.396Z,11.25
2018-01-15T05:24:03.076Z,12.82
2018-01-15T05:26:30.764Z,12.10
2018-01-15T05:28:58.420Z,11.38
2018-01-15T05:31:26.907Z,12.98
2018-01-15T05:33:54.727Z,13.65
2018-01-15T05:36:22.521Z,10.93
2018-01-15T05:38:50.193Z,13.13
2018-01-15T05:41:17.876Z,11.35
2018-01-15T05:43:46.299Z,14.80
2018-01-15T05:46:13.937Z,12.75
2018-01-15T05:48:42.378Z,12.50
2018-01-15T05:51:09.989Z,11.63
2018-01-15T05:53:38.375Z,12.43
2018-01-15T05:56:06.421Z,13.77
2018-01-15T05:58:34.845Z,11.80
2018-01-15T06:01:02.634Z,13.75
2018-01-15T06:03:30.385Z,14.43
2018-01-15T06:05:58.070Z,13.48
2018-01-15T06:08:25.710Z,15.48
2018-01-15T06:10:53.368Z,11.73
2018-01-15T06:13:21.747Z,14.77
2018-01-15T06:15:50.161Z,13.48
2018-01-15T06:18:17.790Z,13.62
2018-01-15T06:20:46.241Z,12.60
2018-01-15T06:23:13.984Z,12.90
2018-01-15T06:25:41.825Z,13.27
2018-01-15T06:28:10.250Z,11.88
2018-01-15T06:30:37.847Z,14.05
2018-01-15T06:33:05.544Z,14.05
2018-01-15T06:35:33.923Z,12.00
2018-01-15T06:38:02.354Z,13.82
2018-01-15T06:40:30.003Z,13.88
2018-01-15T06:42:57.783Z,12.60
2018-01-15T06:45:25.473Z,14.95
2018-01-15T06:47:53.200Z,11.05
2018-01-15T06:50:21.106Z,11.90
2018-01-15T06:52:48.767Z,13.52
2018-01-15T06:55:16.392Z,12.40
2018-01-15T06:57:44.803Z,11.57
2018-01-15T07:00:12.753Z,14.05
2018-01-15T07:02:41.183Z,11.88
2018-01-15T07:05:08.814Z,12.30
2018-01-15T07:07:36.515Z,13.62
2018-01-15T07:10:04.208Z,11.25
2018-01-15T07:12:31.855Z,12.55
2018-01-15T07:14:59.553Z,12.60
2018-01-15T07:17:27.213Z,14.35
2018-01-15T07:19:54.894Z,14.32
2018-01-15T07:22:23.336Z,11.70
2018-01-15T07:24:51.103Z,13.10
2018-01-15T07:27:18.787Z,15.38
2018-01-15T07:29:46.519Z,12.63
2018-01-15T07:32:14.191Z,12.80
2018-01-15T07:34:41.841Z,12.63
2018-01-15T07:37:09.489Z,12.82
2018-01-15T07:39:37.902Z,15.30
2018-01-15T07:42:05.584Z,14.25
2018-01-15T07:44:34.307Z,13.88
2018-01-15T07:47:01.991Z,13.25
2018-01-15T07:49:30.409Z,13.77
2018-01-15T07:51:58.132Z,14.70
2018-01-15T07:54:25.827Z,12.50
2018-01-15T07:56:54.452Z,15.23
2018-01-15T07:59:22.110Z,13.80
2018-01-15T08:01:50.490Z,9.95
2018-01-15T08:04:18.166Z,14.10
2018-01-15T08:06:46.734Z,13.50
2018-01-15T08:09:14.496Z,13.00
2018-01-15T08:11:42.297Z,12.47
2018-01-15T08:14:09.976Z,14.32
2018-01-15T08:16:37.637Z,12.65
2018-01-15T08:19:05.248Z,14.00
2018-01-15T08:21:33.694Z,13.65
2018-01-15T08:24:01.390Z,12.75
2018-01-15T08:26:29.224Z,13.50
2018-01-15T08:28:56.886Z,12.47
2018-01-15T08:31:24.614Z,14.27
2018-01-15T08:33:53.089Z,14.27
2018-01-15T08:36:20.795Z,13.80
2018-01-15T08:38:48.522Z,15.70
2018-01-15T08:41:16.906Z,14.73
2018-01-15T08:43:45.290Z,13.40
2018-01-15T08:46:13.782Z,13.70
2018-01-15T08:48:41.471Z,15.02
2018-01-15T08:51:09.148Z,12.13
2018-01-15T08:53:36.766Z,14.38
2018-01-15T08:56:04.501Z,12.77
2018-01-15T08:58:32.905Z,12.63
2018-01-15T09:01:00.534Z,14.00
2018-01-15T09:03:28.226Z,13.23
2018-01-15T09:05:56.036Z,12.25
2018-01-15T09:08:24.441Z,13.27
2018-01-15T09:10:52.856Z,14.27
2018-01-15T09:13:20.522Z,11.05
2018-01-15T09:15:48.134Z,11.45
2018-01-15T09:18:15.879Z,13.30
2018-01-15T09:20:43.738Z,11.63
2018-01-15T09:23:11.424Z,13.50
2018-01-15T09:25:39.097Z,12.10
2018-01-15T09:28:07.596Z,11.23
2018-01-15T09:30:36.360Z,11.43
2018-01-15T09:33:03.985Z,13.90
2018-01-15T09:35:31.943Z,11.45
2018-01-15T09:38:00.384Z,11.95
2018-01-15T09:40:28.250Z,12.60
2018-01-15T09:42:55.973Z,11.77
2018-01-15T09:45:24.412Z,12.90
2018-01-15T09:47:52.090Z,13.32
2018-01-15T09:50:20.493Z,10.63
2018-01-15T09:52:48.201Z,12.25
2018-01-15T09:55:15.867Z,11.15
2018-01-15T09:57:43.517Z,12.05
2018-01-15T10:00:11.600Z,10.23
2018-01-15T10:02:39.245Z,11.73
2018-01-15T10:05:07.795Z,9.70
2018-01-15T10:07:35.418Z,12.30
2018-01-15T10:10:03.534Z,11.38
2018-01-15T10:12:31.982Z,11.07
2018-01-15T10:14:59.590Z,10.15
2018-01-15T10:17:27.192Z,11.35
2018-01-15T10:19:55.805Z,9.48
2018-01-15T10:22:23.564Z,10.73
2018-01-15T10:24:51.257Z,10.07
2018-01-15T10:27:19.112Z,10.07
2018-01-15T10:29:46.741Z,9.07
2018-01-15T10:32:14.382Z,8.38
2018-01-15T10:34:42.020Z,8.97
2018-01-15T10:37:09.690Z,7.87
2018-01-15T10:39:37.359Z,8.30
2018-01-15T10:42:05.053Z,7.57
2018-01-15T10:44:32.811Z,8.20
2018-01-15T10:47:01.353Z,8.52
2018-01-15T10:49:29.158Z,7.90
2018-01-15T10:51:56.820Z,8.88
2018-01-15T10:54:24.503Z,10.02
2018-01-15T10:56:52.106Z,9.60
2018-01-15T10:59:19.827Z,8.27
2018-01-15T11:01:47.436Z,9.60
2018-01-15T11:04:15.864Z,8.55
2018-01-15T11:06:43.531Z,8.45
2018-01-15T11:09:11.154Z,9.68
2018-01-15T11:11:40.083Z,8.40
2018-01-15T11:14:07.952Z,8.43
2018-01-15T11:16:35.617Z,9.23
2018-01-15T11:19:03.211Z,7.60
2018-01-15T11:21:30.958Z,8.80
2018-01-15T11:23:59.590Z,7.80
2018-01-15T11:26:27.250Z,7.43
2018-01-15T11:28:54.914Z,7.70
2018-01-15T11:31:22.573Z,7.72
2018-01-15T11:33:50.227Z,6.57
2018-01-15T11:36:17.894Z,7.22
2018-01-15T11:38:45.527Z,7.20
2018-01-15T11:41:13.953Z,6.95
2018-01-15T11:43:41.633Z,8.20
2018-01-15T11:46:09.797Z,7.05
2018-01-15T11:48:37.462Z,7.00
2018-01-15T11:51:06.644Z,6.77
2018-01-15T11:53:35.578Z,7.87
2018-01-15T11:56:04.313Z,6.15
2018-01-15T11:58:34.202Z,6.72
2018-01-15T12:01:01.833Z,6.72
2018-01-15T12:03:32.321Z,5.68
2018-01-15T12:06:00.736Z,6.82
2018-01-15T12:08:30.362Z,6.05
2018-01-15T12:10:58.016Z,7.03
2018-01-15T12:13:25.684Z,5.82
2018-01-15T12:15:53.475Z,7.28
2018-01-15T12:18:21.577Z,6.85
2018-01-15T12:20:49.206Z,5.75
2018-01-15T12:23:17.016Z,5.03
2018-01-15T12:25:44.773Z,5.75
2018-01-15T12:28:13.688Z,5.28
2018-01-15T12:30:41.408Z,5.18
2018-01-15T12:33:09.074Z,5.60
2018-01-15T12:35:36.726Z,6.15
2018-01-15T12:38:04.335Z,5.20
2018-01-15T12:40:32.275Z,5.35
2018-01-15T12:42:59.874Z,5.32
2018-01-15T12:45:27.512Z,4.93
2018-01-15T12:47:56.144Z,5.60
2018-01-15T12:50:23.821Z,4.80
2018-01-15T12:52:51.468Z,5.78
2018-01-15T12:55:19.182Z,4.97
2018-01-15T12:57:46.820Z,4.75
2018-01-15T13:00:14.471Z,5.25
2018-01-15T13:02:42.135Z,4.70
2018-01-15T13:05:09.796Z,4.65
2018-01-15T13:07:49.338Z,5.07
2018-01-15T13:10:17.015Z,4.95
2018-01-15T13:12:44.696Z,5.50
2018-01-15T13:15:13.283Z,5.12
2018-01-15T13:17:40.902Z,4.65
2018-01-15T13:20:08.528Z,5.25
2018-01-15T13:22:37.012Z,4.62
2018-01-15T13:25:05.443Z,5.40
2018-01-15T13:27:33.431Z,5.85
2018-01-15T13:30:01.120Z,5.40
2018-01-15T13:32:28.742Z,6.20
2018-01-15T13:34:56.441Z,6.00
2018-01-15T13:37:24.062Z,6.13
2018-01-15T13:39:52.576Z,5.32
2018-01-15T13:42:20.285Z,4.82
2018-01-15T13:44:47.966Z,5.20
2018-01-15T13:47:16.551Z,5.80
2018-01-15T13:49:44.967Z,6.05
2018-01-15T13:52:12.602Z,5.25
2018-01-15T13:54:40.320Z,5.55
2018-01-15T13:57:07.974Z,5.40
2018-01-15T13:59:35.596Z,5.45
2018-01-15T14:02:03.989Z,5.00
2018-01-15T14:04:32.480Z,5.80
2018-01-15T14:07:00.195Z,5.12
2018-01-15T14:09:27.959Z,5.55
2018-01-15T14:11:55.565Z,5.97
2018-01-15T14:14:23.208Z,5.40
2018-01-15T14:16:51.631Z,6.85
2018-01-15T14:19:20.047Z,5.57
2018-01-15T14:21:47.706Z,5.90
2018-01-15T14:24:15.319Z,5.70
2018-01-15T14:26:42.972Z,5.70
2018-01-15T14:29:10.717Z,5.85
2018-01-15T14:31:38.345Z,5.37
2018-01-15T14:34:06.757Z,5.75
2018-01-15T14:36:34.451Z,5.80
2018-01-15T14:39:02.099Z,5.77
2018-01-15T14:41:29.703Z,6.45
2018-01-15T14:43:57.375Z,6.78
2018-01-15T14:46:25.132Z,6.43
2018-01-15T14:48:53.571Z,5.57
2018-01-15T14:51:21.328Z,6.30
2018-01-15T14:53:49.108Z,5.50
2018-01-15T14:56:16.733Z,6.10
2018-01-15T14:58:45.139Z,5.82
2018-01-15T15:01:12.783Z,6.80
2018-01-15T15:03:40.571Z,6.20
2018-01-15T15:06:08.240Z,5.95
2018-01-15T15:08:36.156Z,5.53
2018-01-15T15:11:03.872Z,6.10
2018-01-15T15:13:31.503Z,5.97
2018-01-15T15:15:59.935Z,5.75
2018-01-15T15:18:27.522Z,6.22
2018-01-15T15:20:55.181Z,5.82
2018-01-15T15:23:22.894Z,5.97
2018-01-15T15:25:51.433Z,7.10
2018-01-15T15:28:19.073Z,5.72
2018-01-15T15:30:46.698Z,5.78
2018-01-15T15:33:14.363Z,5.57
2018-01-15T15:35:41.981Z,6.68
2018-01-15T15:38:09.587Z,6.55
2018-01-15T15:40:37.375Z,5.90
2018-01-15T15:43:05.252Z,5.68
2018-01-15T15:45:32.951Z,5.80
2018-01-15T15:48:00.620Z,7.12
2018-01-15T15:50:28.282Z,6.10
2018-01-15T15:52:55.924Z,6.15
2018-01-15T15:55:24.344Z,5.28
2018-01-15T15:57:51.957Z,5.55
2018-01-15T16:00:19.614Z,6.90
2018-01-15T16:02:47.261Z,5.75
2018-01-15T16:05:14.899Z,5.72
2018-01-15T16:07:42.606Z,7.30
2018-01-15T16:10:10.219Z,5.68
2018-01-15T16:12:38.648Z,6.07
2018-01-15T16:15:06.305Z,5.83
2018-01-15T16:17:34.018Z,6.18
2018-01-15T16:20:01.638Z,6.20
2018-01-15T16:22:31.924Z,7.12
2018-01-15T16:25:00.611Z,6.18
2018-01-15T16:27:29.049Z,6.18
2018-01-15T16:29:56.922Z,6.32
2018-01-15T16:32:24.618Z,5.87
2018-01-15T16:34:52.337Z,6.67
2018-01-15T16:37:19.971Z,7.68
2018-01-15T16:39:48.362Z,6.53
2018-01-15T16:42:15.995Z,6.75
2018-01-15T16:44:43.657Z,6.03
2018-01-15T16:47:11.348Z,6.62
2018-01-15T16:49:39.799Z,7.40
2018-01-15T16:52:07.531Z,6.47
2018-01-15T16:54:35.167Z,6.30
2018-01-15T16:57:02.840Z,7.00
2018-01-15T16:59:31.283Z,5.80
2018-01-15T17:01:58.986Z,5.72
2018-01-15T17:04:27.403Z,6.68
2018-01-15T17:06:55.053Z,6.78
2018-01-15T17:09:23.564Z,6.15
2018-01-15T17:11:51.198Z,7.57
2018-01-15T17:14:19.678Z,7.10
2018-01-15T17:16:47.370Z,7.87
2018-01-15T17:19:15.204Z,6.33
2018-01-15T17:21:42.948Z,6.50
2018-01-15T17:24:10.575Z,7.03
2018-01-15T17:26:38.217Z,7.07
2018-01-15T17:29:06.649Z,7.78
2018-01-15T17:31:35.033Z,6.87
2018-01-15T17:34:02.709Z,8.20
2018-01-15T17:36:30.448Z,8.85
2018-01-15T17:38:58.224Z,6.30
2018-01-15T17:41:26.522Z,7.05
2018-01-15T17:43:54.240Z,7.45
2018-01-15T17:46:22.899Z,6.00
2018-01-15T17:48:50.612Z,7.85
2018-01-15T17:51:19.209Z,6.45
2018-01-15T17:53:46.879Z,7.37
2018-01-15T17:56:14.492Z,6.83
2018-01-15T17:58:42.115Z,6.03
2018-01-15T18:01:10.549Z,6.85
2018-01-15T18:03:38.289Z,6.62
2018-01-15T18:06:06.044Z,7.28
2018-01-15T18:08:33.692Z,7.07
2018-01-15T18:11:02.107Z,7.85
2018-01-15T18:13:29.778Z,6.83
2018-01-15T18:15:57.591Z,6.20
2018-01-15T18:18:25.449Z,6.97
2018-01-15T18:20:53.118Z,7.62
2018-01-15T18:23:20.788Z,9.87
2018-01-15T18:25:48.419Z,7.57
2018-01-15T18:28:16.005Z,7.25
2018-01-15T18:30:43.663Z,6.47
2018-01-15T18:33:11.298Z,7.30
2018-01-15T18:35:38.958Z,6.97
2018-01-15T18:38:06.796Z,7.47
2018-01-15T18:40:34.469Z,8.25
2018-01-15T18:43:03.148Z,7.53
2018-01-15T18:45:30.832Z,8.60
2018-01-15T18:47:58.503Z,6.60
2018-01-15T18:50:26.161Z,6.95
2018-01-15T18:52:53.816Z,7.97
2018-01-15T18:55:21.574Z,7.20
2018-01-15T18:57:49.285Z,8.37
2018-01-15T19:00:17.164Z,7.18
2018-01-15T19:02:44.777Z,7.82
2018-01-15T19:05:12.447Z,6.90
2018-01-15T19:07:40.848Z,7.93
2018-01-15T19:10:09.265Z,8.00
2018-01-15T19:12:37.298Z,8.43
2018-01-15T19:15:05.100Z,7.97
2018-01-15T19:17:33.596Z,6.30
2018-01-15T19:20:01.285Z,7.55
2018-01-15T19:22:29.063Z,7.47
2018-01-15T19:24:56.739Z,6.53
2018-01-15T19:27:24.476Z,7.25
2018-01-15T19:29:52.153Z,7.62
2018-01-15T19:32:19.859Z,7.57
2018-01-15T19:35:06.222Z,6.50
2018-01-15T19:37:42.431Z,6.70
2018-01-15T19:40:10.297Z,6.60
2018-01-15T19:42:38.016Z,7.95
2018-01-15T19:45:11.373Z,8.32
2018-01-15T19:47:45.487Z,7.00
2018-01-15T19:50:18.909Z,7.20
2018-01-15T19:52:52.424Z,8.25
2018-01-15T19:55:25.935Z,6.75
2018-01-15T19:57:59.352Z,7.47
2018-01-15T20:00:32.571Z,6.68
2018-01-15T20:03:05.962Z,7.65
2018-01-15T20:05:39.374Z,6.25
2018-01-15T20:08:12.824Z,6.22
2018-01-15T20:10:43.374Z,6.25
2018-01-15T20:13:11.124Z,7.28
2018-01-15T20:15:38.835Z,8.57
2018-01-15T20:18:06.491Z,7.93
2018-01-15T20:20:34.352Z,6.82
2018-01-15T20:23:02.626Z,8.82
2018-01-15T20:25:30.358Z,7.87
2018-01-15T20:27:58.366Z,6.47
2018-01-15T20:30:26.142Z,8.23
2018-01-15T20:32:53.813Z,8.52
2018-01-15T20:35:22.079Z,6.45
2018-01-15T20:37:49.768Z,7.22
2018-01-15T20:40:17.372Z,7.35
2018-01-15T20:42:45.115Z,6.80
2018-01-15T20:45:12.783Z,7.65
2018-01-15T20:47:40.443Z,8.07
2018-01-15T20:50:09.207Z,7.25
2018-01-15T20:52:38.022Z,6.62
2018-01-15T20:55:05.922Z,7.70
2018-01-15T20:57:33.722Z,6.85
2018-01-15T21:00:01.464Z,6.75
2018-01-15T21:02:29.956Z,7.40
2018-01-15T21:04:57.667Z,8.40
2018-01-15T21:07:25.395Z,7.40
2018-01-15T21:09:53.830Z,7.80
2018-01-15T21:12:21.511Z,7.03
2018-01-15T21:14:49.280Z,7.23
2018-01-15T21:17:16.984Z,6.73
2018-01-15T21:19:44.582Z,7.12
2018-01-15T21:22:13.028Z,8.70
2018-01-15T21:24:40.626Z,6.57
2018-01-15T21:27:09.063Z,6.75
2018-01-15T21:29:36.679Z,7.43
2018-01-15T21:32:04.300Z,8.02
2018-01-15T21:34:32.108Z,6.68
2018-01-15T21:37:00.526Z,7.00
2018-01-15T21:39:28.126Z,9.25
2018-01-15T21:41:55.801Z,7.45
2018-01-15T21:44:23.516Z,7.75
2018-01-15T21:46:52.256Z,8.17
2018-01-15T21:49:19.909Z,7.17
2018-01-15T21:51:47.592Z,6.95
2018-01-15T21:54:15.236Z,6.68
2018-01-15T21:56:43.112Z,8.35
2018-01-15T21:59:10.764Z,7.28
2018-01-15T22:01:38.504Z,6.40
2018-01-15T22:04:06.239Z,7.68
2018-01-15T22:06:33.920Z,7.40
2018-01-15T22:09:02.469Z,7.50
2018-01-15T22:11:30.146Z,6.82
2018-01-15T22:13:57.823Z,8.25
2018-01-15T22:16:25.506Z,7.03
2018-01-15T22:18:53.885Z,7.07
2018-01-15T22:21:21.632Z,6.50
2018-01-15T22:23:49.230Z,8.55
2018-01-15T22:26:17.682Z,8.00
2018-01-15T22:28:45.367Z,7.18
2018-01-15T22:31:13.010Z,7.32
2018-01-15T22:33:40.664Z,6.62
2018-01-15T22:36:08.317Z,6.77
2018-01-15T22:38:35.967Z,6.68
2018-01-15T22:41:03.635Z,6.65
2018-01-15T22:43:31.282Z,7.43
2018-01-15T22:45:58.996Z,7.07
2018-01-15T22:48:26.951Z,6.40
2018-01-15T22:50:54.595Z,7.70
2018-01-15T22:53:22.985Z,6.22
2018-01-15T22:55:51.424Z,6.53
2018-01-15T22:58:19.117Z,6.97
2018-01-15T23:00:47.528Z,7.73
2018-01-15T23:03:15.146Z,6.40
2018-01-15T23:05:42.763Z,7.30
2018-01-15T23:08:10.423Z,6.20
2018-01-15T23:10:38.061Z,6.62
2018-01-15T23:13:05.716Z,6.82
2018-01-15T23:15:33.324Z,7.20
2018-01-15T23:18:00.978Z,6.43
2018-01-15T23:20:29.655Z,6.82
2018-01-15T23:22:57.293Z,6.82
2018-01-15T23:25:24.893Z,6.25
2018-01-15T23:27:53.821Z,6.70
2018-01-15T23:30:21.471Z,6.97
2018-01-15T23:32:49.070Z,7.37
2018-01-15T23:35:16.693Z,6.03
2018-01-15T23:37:45.091Z,6.15
2018-01-15T23:40:12.699Z,7.32
2018-01-15T23:42:40.349Z,6.70
2018-01-15T23:45:07.967Z,6.90
2018-01-15T23:47:36.384Z,7.12
2018-01-15T23:50:03.979Z,5.95
2018-01-15T23:52:31.659Z,5.73
2018-01-15T23:54:59.261Z,5.80
2018-01-15T23:57:27.695Z,5.32
2018-01-15T23:59:55.292Z,6.47
